Lojt Kirkeby, Denmark
Current Conditions -  °F | °C
As of 7:50 AM on Friday 28 Nov 2014 (Local Time) from EKSP Reporting Station
Broken Clouds Broken Clouds  
Wind Chill: 30°   Ceiling: 1800
Heat Index: 39°   Visibility: 6mi
Dew Point: 34°   Wind: 18mph
Humidity: 81%   Direction: 110°ESE
Pressure: 30.09"   Gusts: NA
Location:  55.08°N, 9.47°E
Report Text: EKSP 280650Z 11016KT 070V130 9999 BKN018 04/01 Q1019 TEMPO12020G30KT
Loading
Personal Weather Stations






























Interactive Weather Map New forecast layout! Learn more

10-Day Weather Forecast

Advertisements
Track Severe Weather on mobile